createdAt,value
2023-03-26T00:01:39.517Z,22.07
2023-03-26T00:04:07.731Z,23.20
2023-03-26T00:06:39.471Z,24.47
2023-03-26T00:09:09.544Z,23.93
2023-03-26T00:11:36.513Z,20.60
2023-03-26T00:14:03.968Z,20.00
2023-03-26T00:16:32.611Z,21.67
2023-03-26T00:19:01.456Z,23.27
2023-03-26T00:21:30.542Z,20.27
2023-03-26T00:24:17.732Z,26.53
2023-03-26T00:26:48.557Z,22.23
2023-03-26T00:29:15.639Z,22.10
2023-03-26T00:31:46.611Z,18.80
2023-03-26T00:36:44.084Z,21.17
2023-03-26T00:39:11.119Z,19.50
2023-03-26T00:41:43.293Z,21.13
2023-03-26T00:44:10.955Z,16.77
2023-03-26T00:46:39.497Z,21.13
2023-03-26T00:49:10.987Z,24.27
2023-03-26T00:51:39.477Z,27.90
2023-03-26T00:54:09.908Z,21.10
2023-03-26T00:56:37.113Z,20.90
2023-03-26T00:59:04.425Z,25.93
2023-03-26T01:01:32.660Z,19.77
2023-03-26T01:04:27.567Z,25.07
2023-03-26T01:07:01.635Z,18.80
2023-03-26T01:09:34.839Z,15.87
2023-03-26T01:12:08.241Z,19.00
2023-03-26T01:14:36.323Z,20.47
2023-03-26T01:17:07.022Z,13.43
2023-03-26T01:19:53.293Z,22.53
2023-03-26T01:22:29.439Z,24.23
2023-03-26T01:24:56.985Z,13.97
2023-03-26T01:27:50.160Z,18.67
2023-03-26T01:30:43.594Z,19.83
2023-03-26T01:33:33.980Z,23.17
2023-03-26T01:36:16.913Z,19.87
2023-03-26T01:39:02.051Z,18.70
2023-03-26T01:41:49.137Z,20.53
2023-03-26T01:44:34.777Z,19.53
2023-03-26T01:47:05.430Z,25.83
2023-03-26T01:49:32.551Z,16.87
2023-03-26T01:51:59.652Z,22.30
2023-03-26T01:54:32.090Z,19.60
2023-03-26T01:57:21.684Z,21.13
2023-03-26T02:00:13.101Z,23.73
2023-03-26T02:03:18.026Z,30.90
2023-03-26T02:05:57.998Z,15.60
2023-03-26T02:08:26.043Z,20.40
2023-03-26T02:10:58.809Z,15.30
2023-03-26T02:13:28.005Z,22.73
2023-03-26T02:16:07.695Z,18.13
2023-03-26T02:18:39.048Z,21.73
2023-03-26T02:21:12.454Z,24.03
2023-03-26T02:23:47.072Z,20.77
2023-03-26T02:26:19.599Z,22.97
2023-03-26T02:28:48.594Z,18.20
2023-03-26T02:31:19.507Z,19.67
2023-03-26T02:33:47.826Z,27.63
2023-03-26T02:36:24.687Z,26.37
2023-03-26T02:38:55.847Z,20.87
2023-03-26T02:41:24.072Z,24.80
2023-03-26T02:43:52.082Z,24.83
2023-03-26T02:46:19.322Z,26.90
2023-03-26T02:48:49.965Z,22.70
2023-03-26T02:51:18.627Z,19.20
2023-03-26T02:53:47.738Z,18.53
2023-03-26T02:56:18.244Z,17.57
2023-03-26T02:58:46.959Z,24.87
2023-03-26T03:01:18.586Z,21.37
2023-03-26T03:03:47.608Z,19.93
2023-03-26T03:06:18.991Z,15.10
2023-03-26T03:08:47.535Z,25.97
2023-03-26T03:11:21.836Z,20.33
2023-03-26T03:13:55.001Z,24.77
2023-03-26T03:16:22.161Z,15.60
2023-03-26T03:18:54.793Z,22.27
2023-03-26T03:21:28.240Z,16.37
2023-03-26T03:24:00.124Z,15.50
2023-03-26T03:26:30.038Z,15.83
2023-03-26T03:28:58.646Z,21.43
2023-03-26T03:31:27.257Z,22.73
2023-03-26T03:33:55.456Z,20.93
2023-03-26T03:36:28.065Z,19.97
2023-03-26T03:39:02.562Z,17.70
2023-03-26T03:41:31.885Z,14.07
2023-03-26T03:43:59.963Z,13.60
2023-03-26T03:46:29.096Z,22.33
2023-03-26T03:48:56.127Z,13.47
2023-03-26T03:51:23.483Z,19.47
2023-03-26T03:53:55.942Z,19.03
2023-03-26T03:56:24.243Z,23.87
2023-03-26T03:58:53.208Z,10.83
2023-03-26T04:01:23.007Z,19.30
2023-03-26T04:04:00.135Z,17.43
2023-03-26T04:06:30.336Z,18.00
2023-03-26T04:09:00.408Z,23.23
2023-03-26T04:11:28.410Z,15.80
2023-03-26T04:13:58.617Z,16.33
2023-03-26T04:16:25.704Z,19.73
2023-03-26T04:18:52.649Z,14.93
2023-03-26T04:21:21.283Z,11.77
2023-03-26T04:23:51.251Z,14.20
2023-03-26T04:26:19.948Z,13.77
2023-03-26T04:28:54.408Z,22.87
2023-03-26T04:31:29.213Z,14.17
2023-03-26T04:34:05.686Z,11.93
2023-03-26T04:36:34.432Z,12.53
2023-03-26T04:39:04.997Z,16.00
2023-03-26T04:41:32.612Z,18.17
2023-03-26T04:44:02.097Z,17.23
2023-03-26T04:46:33.714Z,10.90
2023-03-26T04:49:01.738Z,11.80
2023-03-26T04:51:38.345Z,17.40
2023-03-26T04:54:07.359Z,14.87
2023-03-26T04:57:00.453Z,17.90
2023-03-26T04:59:34.847Z,17.70
2023-03-26T05:02:04.273Z,11.50
2023-03-26T05:04:34.094Z,14.90
2023-03-26T05:07:02.436Z,19.83
2023-03-26T05:09:30.820Z,14.47
2023-03-26T05:11:58.822Z,13.40
2023-03-26T05:14:25.973Z,18.50
2023-03-26T05:16:57.165Z,19.73
2023-03-26T05:19:25.557Z,19.63
2023-03-26T05:21:54.609Z,11.67
2023-03-26T05:24:25.038Z,16.57
2023-03-26T05:26:52.618Z,10.00
2023-03-26T05:29:24.389Z,20.90
2023-03-26T05:31:54.596Z,17.93
2023-03-26T05:34:26.541Z,15.07
2023-03-26T05:36:53.869Z,15.23
2023-03-26T05:39:27.715Z,19.43
2023-03-26T05:41:57.838Z,16.40
2023-03-26T05:44:26.997Z,14.33
2023-03-26T05:46:57.132Z,13.13
2023-03-26T05:49:24.177Z,10.37
2023-03-26T05:51:52.429Z,9.93
2023-03-26T05:54:21.754Z,14.73
2023-03-26T05:56:52.827Z,15.40
2023-03-26T05:59:19.936Z,15.60
2023-03-26T06:01:51.013Z,14.40
2023-03-26T06:04:18.372Z,13.60
2023-03-26T06:06:48.514Z,13.63
2023-03-26T06:09:17.055Z,10.80
2023-03-26T06:11:47.201Z,21.43
2023-03-26T06:14:16.370Z,16.97
2023-03-26T06:16:45.323Z,14.90
2023-03-26T06:19:12.441Z,13.17
2023-03-26T06:21:39.362Z,14.77
2023-03-26T06:24:06.971Z,13.37
2023-03-26T06:26:34.996Z,15.17
2023-03-26T06:29:05.452Z,14.80
2023-03-26T06:31:32.467Z,13.87
2023-03-26T06:34:02.587Z,13.47
2023-03-26T06:36:32.746Z,16.57
2023-03-26T06:39:07.800Z,12.50
2023-03-26T06:41:38.212Z,14.23
2023-03-26T06:44:08.350Z,12.50
2023-03-26T06:46:37.806Z,7.87
2023-03-26T06:49:06.389Z,10.40
2023-03-26T06:51:34.455Z,12.37
2023-03-26T06:54:04.645Z,7.23
2023-03-26T06:56:32.845Z,5.97
2023-03-26T06:59:02.876Z,10.93
2023-03-26T07:01:29.886Z,9.17
2023-03-26T07:04:00.104Z,5.90
2023-03-26T07:06:29.310Z,5.10
2023-03-26T07:08:58.754Z,4.73
2023-03-26T07:11:29.428Z,5.00
2023-03-26T07:13:59.720Z,4.50
2023-03-26T07:16:27.740Z,4.37
2023-03-26T07:18:56.729Z,6.87
2023-03-26T07:21:27.102Z,4.27
2023-03-26T07:23:57.538Z,2.80
2023-03-26T07:26:43.331Z,2.40
2023-03-26T07:29:26.792Z,4.87
2023-03-26T07:32:05.924Z,3.00
2023-03-26T07:34:46.294Z,3.57
2023-03-26T07:37:14.238Z,7.33
2023-03-26T07:39:58.766Z,5.60
2023-03-26T07:42:50.655Z,5.67
2023-03-26T07:45:24.496Z,3.80
2023-03-26T07:47:53.828Z,6.23
2023-03-26T07:50:24.097Z,2.77
2023-03-26T07:52:51.693Z,5.23
2023-03-26T07:55:19.566Z,5.17
2023-03-26T07:58:01.488Z,4.07
2023-03-26T08:00:47.037Z,4.73
2023-03-26T08:03:32.249Z,7.63
2023-03-26T08:06:28.744Z,6.50
2023-03-26T08:09:32.849Z,6.43
2023-03-26T08:12:31.096Z,4.70
2023-03-26T08:15:30.829Z,5.37
2023-03-26T08:18:27.754Z,7.80
2023-03-26T08:21:14.250Z,3.03
2023-03-26T08:24:06.489Z,4.30
2023-03-26T08:26:57.574Z,3.20
2023-03-26T08:29:45.304Z,4.53
2023-03-26T08:32:19.948Z,3.70
2023-03-26T08:34:47.301Z,3.57
2023-03-26T08:37:14.727Z,4.17
2023-03-26T08:39:42.540Z,4.27
2023-03-26T08:42:19.666Z,4.73
2023-03-26T08:45:03.745Z,4.73
2023-03-26T08:48:03.409Z,3.97
2023-03-26T08:51:01.823Z,4.17
2023-03-26T08:53:55.503Z,4.40
2023-03-26T08:57:10.133Z,2.83
2023-03-26T09:00:02.037Z,5.27
2023-03-26T09:02:37.544Z,3.37
2023-03-26T09:05:24.985Z,5.50
2023-03-26T09:08:17.828Z,5.50
2023-03-26T09:11:39.732Z,5.60
2023-03-26T09:14:43.045Z,6.83
2023-03-26T09:18:03.079Z,8.20
2023-03-26T09:20:55.258Z,7.27
2023-03-26T09:23:59.956Z,6.77
2023-03-26T09:27:01.513Z,6.70
2023-03-26T09:29:55.658Z,12.20
2023-03-26T09:32:47.441Z,7.50
2023-03-26T09:36:14.207Z,7.00
2023-03-26T09:38:43.852Z,7.53
2023-03-26T09:41:37.227Z,3.67
2023-03-26T09:44:24.154Z,6.50
2023-03-26T09:47:19.921Z,3.23
2023-03-26T09:50:01.787Z,4.50
2023-03-26T09:53:12.937Z,5.77
2023-03-26T09:56:04.844Z,4.23
2023-03-26T09:58:42.590Z,3.53
2023-03-26T10:01:32.156Z,7.30
2023-03-26T10:04:27.087Z,3.87
2023-03-26T10:07:16.280Z,5.60
2023-03-26T10:10:01.964Z,6.67
2023-03-26T10:12:33.835Z,3.90
2023-03-26T10:15:27.189Z,3.87
2023-03-26T10:18:27.104Z,4.47
2023-03-26T10:21:08.416Z,5.93
2023-03-26T10:24:06.094Z,2.90
2023-03-26T10:26:40.042Z,6.40
2023-03-26T10:29:36.201Z,3.97
2023-03-26T10:32:34.699Z,4.63
2023-03-26T10:35:23.881Z,5.13
2023-03-26T10:37:54.964Z,4.17
2023-03-26T10:40:43.865Z,3.50
2023-03-26T10:43:29.263Z,3.87
2023-03-26T10:46:27.684Z,5.73
2023-03-26T10:49:14.480Z,4.20
2023-03-26T10:51:50.499Z,4.23
2023-03-26T10:54:47.827Z,5.23
2023-03-26T10:57:40.845Z,4.10
2023-03-26T11:00:31.246Z,2.93
2023-03-26T11:03:12.999Z,4.47
2023-03-26T11:06:02.292Z,3.53
2023-03-26T11:08:33.422Z,3.43
2023-03-26T11:11:06.580Z,2.20
2023-03-26T11:13:46.701Z,1.07
2023-03-26T11:16:41.552Z,4.43
2023-03-26T11:19:22.024Z,4.67
2023-03-26T11:21:51.749Z,2.90
2023-03-26T11:24:32.124Z,3.47
2023-03-26T11:27:14.854Z,4.87
2023-03-26T11:29:43.276Z,2.30
2023-03-26T11:32:17.506Z,3.47
2023-03-26T11:35:02.524Z,2.70
2023-03-26T11:37:41.612Z,4.80
2023-03-26T11:40:21.584Z,4.07
2023-03-26T11:42:54.351Z,6.87
2023-03-26T11:45:28.109Z,4.20
2023-03-26T11:48:04.197Z,6.93
2023-03-26T11:50:35.234Z,4.83
2023-03-26T11:53:18.152Z,6.67
2023-03-26T11:55:58.878Z,4.87
2023-03-26T11:58:54.248Z,3.33
2023-03-26T12:01:41.248Z,3.73
2023-03-26T12:04:15.466Z,3.63
2023-03-26T12:07:07.198Z,5.40
2023-03-26T12:09:34.191Z,2.80
2023-03-26T12:12:04.670Z,3.40
2023-03-26T12:14:35.522Z,3.73
2023-03-26T12:17:14.460Z,5.63
2023-03-26T12:19:45.447Z,6.03
2023-03-26T12:22:43.596Z,6.83
2023-03-26T12:25:17.034Z,3.13
2023-03-26T12:28:05.158Z,7.70
2023-03-26T12:30:38.060Z,4.33
2023-03-26T12:33:29.453Z,5.40
2023-03-26T12:36:00.802Z,6.43
2023-03-26T12:38:34.004Z,4.17
2023-03-26T12:42:25.824Z,3.50
2023-03-26T12:44:52.813Z,2.53
2023-03-26T12:47:59.882Z,3.70
2023-03-26T12:50:34.708Z,6.07
2023-03-26T12:53:35.883Z,3.73
2023-03-26T12:56:27.330Z,4.70
2023-03-26T12:59:08.523Z,1.73
2023-03-26T13:01:47.631Z,5.10
2023-03-26T13:04:49.302Z,3.63
2023-03-26T13:07:52.108Z,3.87
2023-03-26T13:10:38.012Z,6.67
2023-03-26T13:13:18.780Z,3.00
2023-03-26T13:16:18.072Z,6.37
2023-03-26T13:18:53.068Z,13.47
2023-03-26T13:21:40.049Z,19.60
2023-03-26T13:24:08.115Z,23.13
2023-03-26T13:27:00.325Z,25.70
2023-03-26T13:29:56.728Z,18.03
2023-03-26T13:33:21.519Z,17.20
2023-03-26T13:36:23.837Z,19.73
2023-03-26T13:39:08.103Z,13.53
2023-03-26T13:41:57.488Z,29.93
2023-03-26T13:45:08.580Z,18.17
2023-03-26T13:47:42.595Z,17.27
2023-03-26T13:50:38.486Z,15.93
2023-03-26T13:53:13.420Z,18.70
2023-03-26T13:55:43.766Z,18.10
2023-03-26T13:58:17.630Z,18.50
2023-03-26T14:01:09.760Z,17.97
2023-03-26T14:04:02.309Z,16.60
2023-03-26T14:06:54.287Z,18.77
2023-03-26T14:09:36.369Z,27.70
2023-03-26T14:12:21.276Z,21.23
2023-03-26T14:15:05.707Z,15.43
2023-03-26T14:17:41.642Z,13.53
2023-03-26T14:20:47.725Z,17.30
2023-03-26T14:23:38.512Z,14.17
2023-03-26T14:26:21.722Z,13.63
2023-03-26T14:29:18.881Z,15.00
2023-03-26T14:32:06.481Z,15.37
2023-03-26T14:34:39.593Z,18.10
2023-03-26T14:37:30.499Z,19.13
2023-03-26T14:40:16.978Z,16.67
2023-03-26T14:42:57.612Z,23.63
2023-03-26T14:45:37.592Z,21.30
2023-03-26T14:48:41.889Z,15.30
2023-03-26T14:51:27.141Z,23.43
2023-03-26T14:54:02.848Z,14.33
2023-03-26T14:57:06.398Z,21.47
2023-03-26T15:00:07.344Z,17.27
2023-03-26T15:02:40.458Z,12.97
2023-03-26T15:05:47.194Z,19.60
2023-03-26T15:08:34.416Z,13.57
2023-03-26T15:11:39.161Z,13.00
2023-03-26T15:14:46.762Z,17.43
2023-03-26T15:17:34.535Z,17.87
2023-03-26T15:20:19.868Z,13.60
2023-03-26T15:23:00.988Z,10.43
2023-03-26T15:25:41.172Z,16.40
2023-03-26T15:28:42.771Z,12.20
2023-03-26T15:31:22.071Z,19.40
2023-03-26T15:34:07.870Z,14.03
2023-03-26T15:37:00.427Z,16.87
2023-03-26T15:40:07.695Z,22.20
2023-03-26T15:42:59.847Z,14.03
2023-03-26T15:45:51.475Z,20.00
2023-03-26T15:48:37.628Z,11.10
2023-03-26T15:51:32.157Z,24.17
2023-03-26T15:54:29.073Z,13.87
2023-03-26T15:57:17.353Z,12.87
2023-03-26T16:00:23.013Z,17.57
2023-03-26T16:03:15.038Z,7.33
2023-03-26T16:06:10.201Z,17.07
2023-03-26T16:08:54.779Z,13.13
2023-03-26T16:11:56.869Z,10.27
2023-03-26T16:14:42.287Z,11.63
2023-03-26T16:17:34.597Z,12.33
2023-03-26T16:20:31.596Z,7.17
2023-03-26T16:23:06.366Z,14.67
2023-03-26T16:25:36.198Z,16.23
2023-03-26T16:28:10.584Z,14.57
2023-03-26T16:30:39.190Z,13.63
2023-03-26T16:33:15.696Z,14.60
2023-03-26T16:35:44.809Z,13.33
2023-03-26T16:38:14.991Z,12.83
2023-03-26T16:41:02.271Z,13.87
2023-03-26T16:44:04.351Z,14.57
2023-03-26T16:47:06.302Z,13.73
2023-03-26T16:50:08.506Z,13.57
2023-03-26T16:52:55.165Z,12.63
2023-03-26T16:55:47.002Z,10.87
2023-03-26T16:58:22.698Z,19.37
2023-03-26T17:01:01.787Z,8.97
2023-03-26T17:03:49.280Z,9.07
2023-03-26T17:06:23.380Z,12.33
2023-03-26T17:09:25.026Z,13.30
2023-03-26T17:12:19.307Z,12.40
2023-03-26T17:15:19.219Z,15.87
2023-03-26T17:17:58.233Z,11.33
2023-03-26T17:20:33.431Z,15.13
2023-03-26T17:23:19.996Z,13.83
2023-03-26T17:26:01.429Z,10.53
2023-03-26T17:28:45.781Z,11.63
2023-03-26T17:31:35.506Z,15.80
2023-03-26T17:34:51.331Z,9.10
2023-03-26T17:37:26.482Z,7.07
2023-03-26T17:39:53.446Z,10.93
2023-03-26T17:42:28.432Z,10.47
2023-03-26T17:45:00.187Z,9.53
2023-03-26T17:47:49.962Z,12.43
2023-03-26T17:50:22.878Z,9.87
2023-03-26T17:53:02.159Z,11.10
2023-03-26T17:55:36.616Z,9.43
2023-03-26T17:58:24.027Z,11.03
2023-03-26T18:00:56.976Z,14.23
2023-03-26T18:03:44.436Z,11.20
2023-03-26T18:06:18.893Z,12.00
2023-03-26T18:09:12.148Z,18.07
2023-03-26T18:12:03.777Z,9.33
2023-03-26T18:14:47.778Z,12.17
2023-03-26T18:17:16.552Z,8.93
2023-03-26T18:19:53.500Z,10.47
2023-03-26T18:22:28.533Z,12.13
2023-03-26T18:25:01.565Z,20.17
2023-03-26T18:27:40.970Z,17.23
2023-03-26T18:30:20.996Z,14.20
2023-03-26T18:33:04.028Z,10.53
2023-03-26T18:35:45.182Z,13.33
2023-03-26T18:38:35.105Z,10.70
2023-03-26T18:41:15.393Z,8.77
2023-03-26T18:43:45.757Z,16.03
2023-03-26T18:46:17.157Z,8.27
2023-03-26T18:48:46.843Z,14.33
2023-03-26T18:51:23.196Z,9.07
2023-03-26T18:54:03.043Z,9.67
2023-03-26T18:56:43.324Z,14.53
2023-03-26T18:59:30.917Z,9.27
2023-03-26T19:02:07.543Z,12.27
2023-03-26T19:04:37.342Z,13.07
2023-03-26T19:07:11.937Z,9.63
2023-03-26T19:09:40.298Z,11.60
2023-03-26T19:12:23.267Z,15.13
2023-03-26T19:15:16.864Z,11.60
2023-03-26T19:17:55.956Z,8.23
2023-03-26T19:20:29.712Z,15.40
2023-03-26T19:22:59.270Z,10.70
2023-03-26T19:25:31.643Z,5.63
2023-03-26T19:28:01.899Z,7.20
2023-03-26T19:30:35.172Z,8.23
2023-03-26T19:33:13.886Z,6.70
2023-03-26T19:35:44.195Z,14.50
2023-03-26T19:38:37.907Z,14.20
2023-03-26T19:41:05.637Z,12.93
2023-03-26T19:43:34.669Z,12.30
2023-03-26T19:46:04.916Z,14.80
2023-03-26T19:48:46.150Z,10.67
2023-03-26T19:51:21.515Z,8.33
2023-03-26T19:53:53.878Z,7.50
2023-03-26T19:56:23.012Z,8.97
2023-03-26T19:58:50.901Z,10.90
2023-03-26T20:01:21.510Z,10.83
2023-03-26T20:03:52.833Z,11.00
2023-03-26T20:06:30.852Z,11.73
2023-03-26T20:09:02.003Z,8.50
2023-03-26T20:11:34.295Z,15.67
2023-03-26T20:14:02.088Z,17.47
2023-03-26T20:16:35.186Z,11.10
2023-03-26T20:19:04.305Z,11.23
2023-03-26T20:21:34.981Z,9.40
2023-03-26T20:24:18.043Z,10.70
2023-03-26T20:26:48.313Z,7.33
2023-03-26T20:29:16.307Z,9.90
2023-03-26T20:31:46.703Z,15.00
2023-03-26T20:34:23.524Z,19.83
2023-03-26T20:36:55.564Z,20.77
2023-03-26T20:39:23.879Z,15.33
2023-03-26T20:41:55.112Z,15.60
2023-03-26T20:44:23.541Z,17.70
2023-03-26T20:46:53.249Z,10.67
2023-03-26T20:49:22.237Z,12.73
2023-03-26T20:51:49.438Z,10.17
2023-03-26T20:54:24.648Z,8.17
2023-03-26T20:56:53.536Z,26.30
2023-03-26T20:59:27.023Z,15.40
2023-03-26T21:01:58.160Z,15.70
2023-03-26T21:04:27.140Z,19.97
2023-03-26T21:07:07.084Z,16.87
2023-03-26T21:09:42.342Z,15.50
2023-03-26T21:12:16.995Z,12.97
2023-03-26T21:14:47.415Z,12.83
2023-03-26T21:17:20.750Z,17.13
2023-03-26T21:19:48.473Z,14.83
2023-03-26T21:22:40.479Z,10.27
2023-03-26T21:25:41.707Z,11.10
2023-03-26T21:28:18.080Z,13.83
2023-03-26T21:30:47.169Z,13.73
2023-03-26T21:33:17.715Z,15.17
2023-03-26T21:35:45.296Z,14.80
2023-03-26T21:38:13.706Z,9.47
2023-03-26T21:40:46.997Z,8.03
2023-03-26T21:43:23.435Z,7.70
2023-03-26T21:45:54.934Z,12.83
2023-03-26T21:48:24.498Z,12.30
2023-03-26T21:50:51.717Z,11.50
2023-03-26T21:53:19.017Z,7.40
2023-03-26T21:56:18.635Z,8.70
2023-03-26T21:58:57.458Z,10.20
2023-03-26T22:01:51.291Z,5.97
2023-03-26T22:04:49.472Z,10.90
2023-03-26T22:07:23.316Z,9.37
2023-03-26T22:09:50.534Z,8.77
2023-03-26T22:12:20.611Z,7.93
2023-03-26T22:14:50.735Z,9.97
2023-03-26T22:17:20.142Z,10.77
2023-03-26T22:19:48.110Z,11.83
2023-03-26T22:22:15.198Z,7.97
2023-03-26T22:24:45.263Z,5.60
2023-03-26T22:27:16.182Z,3.63
2023-03-26T22:29:46.600Z,3.77
2023-03-26T22:32:13.916Z,3.63
2023-03-26T22:34:41.546Z,4.13
2023-03-26T22:37:08.554Z,12.33
2023-03-26T22:39:37.873Z,12.23
2023-03-26T22:42:05.191Z,12.40
2023-03-26T22:44:32.216Z,8.93
2023-03-26T22:46:59.333Z,10.37
2023-03-26T22:49:27.544Z,15.50
2023-03-26T22:51:55.040Z,8.17
2023-03-26T22:54:22.181Z,10.63
2023-03-26T22:56:49.271Z,7.43
2023-03-26T22:59:16.301Z,7.43
2023-03-26T23:01:44.301Z,8.20
2023-03-26T23:04:31.211Z,6.43
2023-03-26T23:07:02.231Z,6.20
2023-03-26T23:09:30.287Z,5.97
2023-03-26T23:12:00.640Z,8.43
2023-03-26T23:14:28.825Z,4.47
2023-03-26T23:16:58.394Z,6.67
2023-03-26T23:19:30.297Z,9.70
2023-03-26T23:21:59.297Z,7.17
2023-03-26T23:24:30.197Z,6.33
2023-03-26T23:26:59.200Z,7.90
2023-03-26T23:29:30.222Z,13.77
2023-03-26T23:31:59.951Z,6.70
2023-03-26T23:34:30.396Z,6.40
2023-03-26T23:36:58.212Z,7.13
2023-03-26T23:39:26.749Z,9.00
2023-03-26T23:41:55.725Z,8.07
2023-03-26T23:44:24.796Z,5.70
2023-03-26T23:46:58.068Z,5.90
2023-03-26T23:49:27.888Z,6.17
2023-03-26T23:51:54.943Z,9.17
2023-03-26T23:54:25.720Z,10.93
2023-03-26T23:56:59.528Z,7.67
2023-03-26T23:59:29.634Z,18.70
